sensor_id;sensor_type;location;lat;lon;timestamp;P1;durP1;ratioP1;P2;durP2;ratioP2
16031;SDS011;8120;48.308;8.914;2023-08-12T00:00:19;4.70;;;3.47;;
16031;SDS011;8120;48.308;8.914;2023-08-12T00:02:48;5.87;;;3.40;;
16031;SDS011;8120;48.308;8.914;2023-08-12T00:05:17;4.57;;;3.10;;
16031;SDS011;8120;48.308;8.914;2023-08-12T00:07:45;5.17;;;3.67;;
16031;SDS011;8120;48.308;8.914;2023-08-12T00:10:13;4.67;;;3.40;;
16031;SDS011;8120;48.308;8.914;2023-08-12T00:12:41;4.80;;;3.50;;
16031;SDS011;8120;48.308;8.914;2023-08-12T00:15:10;5.17;;;3.50;;
16031;SDS011;8120;48.308;8.914;2023-08-12T00:17:38;7.63;;;4.00;;
16031;SDS011;8120;48.308;8.914;2023-08-12T00:20:10;5.67;;;3.47;;
16031;SDS011;8120;48.308;8.914;2023-08-12T00:22:39;5.93;;;3.73;;
16031;SDS011;8120;48.308;8.914;2023-08-12T00:25:07;5.80;;;4.20;;
16031;SDS011;8120;48.308;8.914;2023-08-12T00:27:35;6.83;;;4.07;;
16031;SDS011;8120;48.308;8.914;2023-08-12T00:30:04;6.07;;;3.93;;
16031;SDS011;8120;48.308;8.914;2023-08-12T00:32:32;7.53;;;4.23;;
16031;SDS011;8120;48.308;8.914;2023-08-12T00:35:00;7.03;;;3.97;;
16031;SDS011;8120;48.308;8.914;2023-08-12T00:37:30;6.27;;;3.87;;
16031;SDS011;8120;48.308;8.914;2023-08-12T00:39:58;5.07;;;3.90;;
16031;SDS011;8120;48.308;8.914;2023-08-12T00:42:26;5.93;;;4.13;;
16031;SDS011;8120;48.308;8.914;2023-08-12T00:44:54;5.33;;;3.80;;
16031;SDS011;8120;48.308;8.914;2023-08-12T00:47:21;5.30;;;3.63;;
16031;SDS011;8120;48.308;8.914;2023-08-12T00:49:49;6.07;;;4.60;;
16031;SDS011;8120;48.308;8.914;2023-08-12T00:52:18;5.50;;;3.87;;
16031;SDS011;8120;48.308;8.914;2023-08-12T00:54:47;5.70;;;3.90;;
16031;SDS011;8120;48.308;8.914;2023-08-12T00:57:15;4.93;;;3.70;;
16031;SDS011;8120;48.308;8.914;2023-08-12T00:59:43;6.60;;;3.83;;
16031;SDS011;8120;48.308;8.914;2023-08-12T01:02:12;5.87;;;3.77;;
16031;SDS011;8120;48.308;8.914;2023-08-12T01:04:40;5.27;;;3.70;;
16031;SDS011;8120;48.308;8.914;2023-08-12T01:07:08;6.73;;;4.30;;
16031;SDS011;8120;48.308;8.914;2023-08-12T01:09:37;4.97;;;3.90;;
16031;SDS011;8120;48.308;8.914;2023-08-12T01:12:06;4.50;;;3.70;;
16031;SDS011;8120;48.308;8.914;2023-08-12T01:14:43;5.50;;;4.07;;
16031;SDS011;8120;48.308;8.914;2023-08-12T01:17:14;5.20;;;3.73;;
16031;SDS011;8120;48.308;8.914;2023-08-12T01:19:43;5.50;;;3.77;;
16031;SDS011;8120;48.308;8.914;2023-08-12T01:22:12;4.60;;;3.60;;
16031;SDS011;8120;48.308;8.914;2023-08-12T01:24:43;6.60;;;4.13;;
16031;SDS011;8120;48.308;8.914;2023-08-12T01:27:12;5.10;;;3.87;;
16031;SDS011;8120;48.308;8.914;2023-08-12T01:29:41;5.83;;;3.80;;
16031;SDS011;8120;48.308;8.914;2023-08-12T01:32:11;5.70;;;4.00;;
16031;SDS011;8120;48.308;8.914;2023-08-12T01:34:46;5.57;;;4.23;;
16031;SDS011;8120;48.308;8.914;2023-08-12T01:37:17;7.60;;;3.97;;
16031;SDS011;8120;48.308;8.914;2023-08-12T01:39:52;7.27;;;4.00;;
16031;SDS011;8120;48.308;8.914;2023-08-12T01:42:21;4.90;;;4.00;;
16031;SDS011;8120;48.308;8.914;2023-08-12T01:44:49;7.17;;;4.40;;
16031;SDS011;8120;48.308;8.914;2023-08-12T01:47:17;6.00;;;3.47;;
16031;SDS011;8120;48.308;8.914;2023-08-12T01:49:45;5.73;;;4.03;;
16031;SDS011;8120;48.308;8.914;2023-08-12T01:52:13;5.80;;;3.90;;
16031;SDS011;8120;48.308;8.914;2023-08-12T01:54:41;5.77;;;4.00;;
16031;SDS011;8120;48.308;8.914;2023-08-12T01:57:10;6.27;;;4.30;;
16031;SDS011;8120;48.308;8.914;2023-08-12T01:59:38;5.50;;;3.93;;
16031;SDS011;8120;48.308;8.914;2023-08-12T02:02:07;7.00;;;4.43;;
16031;SDS011;8120;48.308;8.914;2023-08-12T02:04:35;5.40;;;4.10;;
16031;SDS011;8120;48.308;8.914;2023-08-12T02:07:04;4.90;;;3.93;;
16031;SDS011;8120;48.308;8.914;2023-08-12T02:09:32;5.33;;;4.03;;
16031;SDS011;8120;48.308;8.914;2023-08-12T02:12:00;7.10;;;4.37;;
16031;SDS011;8120;48.308;8.914;2023-08-12T02:14:29;5.50;;;3.80;;
16031;SDS011;8120;48.308;8.914;2023-08-12T02:16:57;5.90;;;3.83;;
16031;SDS011;8120;48.308;8.914;2023-08-12T02:19:25;6.03;;;3.90;;
16031;SDS011;8120;48.308;8.914;2023-08-12T02:21:52;5.67;;;4.20;;
16031;SDS011;8120;48.308;8.914;2023-08-12T02:24:20;5.27;;;4.00;;
16031;SDS011;8120;48.308;8.914;2023-08-12T02:26:48;5.80;;;3.67;;
16031;SDS011;8120;48.308;8.914;2023-08-12T02:29:16;6.10;;;3.73;;
16031;SDS011;8120;48.308;8.914;2023-08-12T02:31:45;7.40;;;3.93;;
16031;SDS011;8120;48.308;8.914;2023-08-12T02:34:13;5.27;;;3.90;;
16031;SDS011;8120;48.308;8.914;2023-08-12T02:36:41;6.33;;;4.10;;
16031;SDS011;8120;48.308;8.914;2023-08-12T02:39:09;6.17;;;4.13;;
16031;SDS011;8120;48.308;8.914;2023-08-12T02:41:36;8.63;;;3.90;;
16031;SDS011;8120;48.308;8.914;2023-08-12T02:44:04;5.60;;;4.13;;
16031;SDS011;8120;48.308;8.914;2023-08-12T02:46:32;5.87;;;4.63;;
16031;SDS011;8120;48.308;8.914;2023-08-12T02:49:01;6.03;;;4.17;;
16031;SDS011;8120;48.308;8.914;2023-08-12T02:51:29;6.87;;;4.03;;
16031;SDS011;8120;48.308;8.914;2023-08-12T02:53:57;7.07;;;4.40;;
16031;SDS011;8120;48.308;8.914;2023-08-12T02:56:25;7.37;;;4.47;;
16031;SDS011;8120;48.308;8.914;2023-08-12T02:58:53;6.20;;;4.50;;
16031;SDS011;8120;48.308;8.914;2023-08-12T03:01:21;5.57;;;3.90;;
16031;SDS011;8120;48.308;8.914;2023-08-12T03:03:50;6.57;;;4.30;;
16031;SDS011;8120;48.308;8.914;2023-08-12T03:06:20;6.37;;;4.60;;
16031;SDS011;8120;48.308;8.914;2023-08-12T03:08:48;8.47;;;4.70;;
16031;SDS011;8120;48.308;8.914;2023-08-12T03:11:15;6.67;;;4.60;;
16031;SDS011;8120;48.308;8.914;2023-08-12T03:13:44;6.50;;;4.30;;
16031;SDS011;8120;48.308;8.914;2023-08-12T03:16:12;6.33;;;4.53;;
16031;SDS011;8120;48.308;8.914;2023-08-12T03:18:40;6.00;;;4.33;;
16031;SDS011;8120;48.308;8.914;2023-08-12T03:21:08;6.53;;;4.47;;
16031;SDS011;8120;48.308;8.914;2023-08-12T03:23:38;7.07;;;4.33;;
16031;SDS011;8120;48.308;8.914;2023-08-12T03:26:06;6.80;;;4.30;;
16031;SDS011;8120;48.308;8.914;2023-08-12T03:28:34;5.07;;;3.97;;
16031;SDS011;8120;48.308;8.914;2023-08-12T03:31:02;5.00;;;3.83;;
16031;SDS011;8120;48.308;8.914;2023-08-12T03:33:30;7.00;;;4.20;;
16031;SDS011;8120;48.308;8.914;2023-08-12T03:35:59;6.43;;;4.37;;
16031;SDS011;8120;48.308;8.914;2023-08-12T03:38:27;6.37;;;4.10;;
16031;SDS011;8120;48.308;8.914;2023-08-12T03:40:57;6.20;;;4.07;;
16031;SDS011;8120;48.308;8.914;2023-08-12T03:43:24;5.90;;;4.20;;
16031;SDS011;8120;48.308;8.914;2023-08-12T03:45:52;5.13;;;4.10;;
16031;SDS011;8120;48.308;8.914;2023-08-12T03:48:21;6.57;;;4.83;;
16031;SDS011;8120;48.308;8.914;2023-08-12T03:50:49;6.13;;;4.40;;
16031;SDS011;8120;48.308;8.914;2023-08-12T03:53:17;6.67;;;4.13;;
16031;SDS011;8120;48.308;8.914;2023-08-12T03:55:45;5.53;;;4.00;;
16031;SDS011;8120;48.308;8.914;2023-08-12T03:58:14;6.30;;;3.77;;
16031;SDS011;8120;48.308;8.914;2023-08-12T04:00:43;5.67;;;4.23;;
16031;SDS011;8120;48.308;8.914;2023-08-12T04:03:11;8.77;;;4.27;;
16031;SDS011;8120;48.308;8.914;2023-08-12T04:05:46;5.97;;;4.30;;
16031;SDS011;8120;48.308;8.914;2023-08-12T04:08:15;5.10;;;3.87;;
16031;SDS011;8120;48.308;8.914;2023-08-12T04:10:44;4.70;;;3.67;;
16031;SDS011;8120;48.308;8.914;2023-08-12T04:13:15;5.47;;;4.00;;
16031;SDS011;8120;48.308;8.914;2023-08-12T04:15:43;5.47;;;4.07;;
16031;SDS011;8120;48.308;8.914;2023-08-12T04:18:16;6.07;;;4.17;;
16031;SDS011;8120;48.308;8.914;2023-08-12T04:20:44;6.53;;;4.37;;
16031;SDS011;8120;48.308;8.914;2023-08-12T04:23:13;4.97;;;3.83;;
16031;SDS011;8120;48.308;8.914;2023-08-12T04:25:42;5.97;;;4.13;;
16031;SDS011;8120;48.308;8.914;2023-08-12T04:28:11;7.03;;;3.90;;
16031;SDS011;8120;48.308;8.914;2023-08-12T04:30:43;6.03;;;4.00;;
16031;SDS011;8120;48.308;8.914;2023-08-12T04:33:13;4.97;;;3.53;;
16031;SDS011;8120;48.308;8.914;2023-08-12T04:35:41;6.73;;;4.10;;
16031;SDS011;8120;48.308;8.914;2023-08-12T04:38:09;6.33;;;4.40;;
16031;SDS011;8120;48.308;8.914;2023-08-12T04:40:38;4.77;;;3.57;;
16031;SDS011;8120;48.308;8.914;2023-08-12T04:43:07;5.07;;;4.00;;
16031;SDS011;8120;48.308;8.914;2023-08-12T04:45:35;5.27;;;3.93;;
16031;SDS011;8120;48.308;8.914;2023-08-12T04:48:06;5.37;;;4.10;;
16031;SDS011;8120;48.308;8.914;2023-08-12T04:50:35;5.97;;;3.93;;
16031;SDS011;8120;48.308;8.914;2023-08-12T04:53:03;4.67;;;3.77;;
16031;SDS011;8120;48.308;8.914;2023-08-12T04:55:31;7.00;;;4.73;;
16031;SDS011;8120;48.308;8.914;2023-08-12T04:57:59;6.23;;;3.37;;
16031;SDS011;8120;48.308;8.914;2023-08-12T05:00:27;5.90;;;4.20;;
16031;SDS011;8120;48.308;8.914;2023-08-12T05:02:56;7.80;;;4.00;;
16031;SDS011;8120;48.308;8.914;2023-08-12T05:05:26;5.83;;;4.30;;
16031;SDS011;8120;48.308;8.914;2023-08-12T05:07:54;5.30;;;4.17;;
16031;SDS011;8120;48.308;8.914;2023-08-12T05:10:22;5.93;;;3.63;;
16031;SDS011;8120;48.308;8.914;2023-08-12T05:12:50;4.73;;;3.80;;
16031;SDS011;8120;48.308;8.914;2023-08-12T05:15:20;6.00;;;3.97;;
16031;SDS011;8120;48.308;8.914;2023-08-12T05:17:48;5.60;;;3.97;;
16031;SDS011;8120;48.308;8.914;2023-08-12T05:20:16;5.53;;;3.83;;
16031;SDS011;8120;48.308;8.914;2023-08-12T05:22:46;6.53;;;4.20;;
16031;SDS011;8120;48.308;8.914;2023-08-12T05:25:13;5.30;;;3.60;;
16031;SDS011;8120;48.308;8.914;2023-08-12T05:27:42;5.60;;;3.47;;
16031;SDS011;8120;48.308;8.914;2023-08-12T05:30:10;4.63;;;3.50;;
16031;SDS011;8120;48.308;8.914;2023-08-12T05:32:38;5.10;;;3.87;;
16031;SDS011;8120;48.308;8.914;2023-08-12T05:35:07;4.90;;;3.87;;
16031;SDS011;8120;48.308;8.914;2023-08-12T05:37:35;4.90;;;3.50;;
16031;SDS011;8120;48.308;8.914;2023-08-12T05:40:05;6.57;;;4.00;;
16031;SDS011;8120;48.308;8.914;2023-08-12T05:42:35;5.13;;;3.70;;
16031;SDS011;8120;48.308;8.914;2023-08-12T05:45:03;6.60;;;3.33;;
16031;SDS011;8120;48.308;8.914;2023-08-12T05:47:34;5.47;;;3.87;;
16031;SDS011;8120;48.308;8.914;2023-08-12T05:50:02;5.57;;;3.77;;
16031;SDS011;8120;48.308;8.914;2023-08-12T05:52:30;4.90;;;3.33;;
16031;SDS011;8120;48.308;8.914;2023-08-12T05:54:58;6.17;;;3.90;;
16031;SDS011;8120;48.308;8.914;2023-08-12T05:57:27;5.70;;;3.60;;
16031;SDS011;8120;48.308;8.914;2023-08-12T05:59:55;4.77;;;3.77;;
16031;SDS011;8120;48.308;8.914;2023-08-12T06:02:25;5.30;;;3.87;;
16031;SDS011;8120;48.308;8.914;2023-08-12T06:04:53;5.10;;;3.63;;
16031;SDS011;8120;48.308;8.914;2023-08-12T06:07:21;6.47;;;4.23;;
16031;SDS011;8120;48.308;8.914;2023-08-12T06:09:49;6.80;;;3.60;;
16031;SDS011;8120;48.308;8.914;2023-08-12T06:12:17;5.27;;;3.97;;
16031;SDS011;8120;48.308;8.914;2023-08-12T06:14:46;4.50;;;3.77;;
16031;SDS011;8120;48.308;8.914;2023-08-12T06:17:14;5.67;;;4.33;;
16031;SDS011;8120;48.308;8.914;2023-08-12T06:19:42;5.63;;;3.83;;
16031;SDS011;8120;48.308;8.914;2023-08-12T06:22:10;6.00;;;4.00;;
16031;SDS011;8120;48.308;8.914;2023-08-12T06:24:38;4.60;;;3.87;;
16031;SDS011;8120;48.308;8.914;2023-08-12T06:27:06;6.50;;;3.43;;
16031;SDS011;8120;48.308;8.914;2023-08-12T06:29:34;4.10;;;3.30;;
16031;SDS011;8120;48.308;8.914;2023-08-12T06:32:03;5.70;;;3.90;;
16031;SDS011;8120;48.308;8.914;2023-08-12T06:34:31;4.67;;;3.80;;
16031;SDS011;8120;48.308;8.914;2023-08-12T06:36:59;6.97;;;3.90;;
16031;SDS011;8120;48.308;8.914;2023-08-12T06:39:27;9.23;;;4.40;;
16031;SDS011;8120;48.308;8.914;2023-08-12T06:41:55;4.93;;;4.07;;
16031;SDS011;8120;48.308;8.914;2023-08-12T06:44:25;6.40;;;4.10;;
16031;SDS011;8120;48.308;8.914;2023-08-12T06:46:52;6.17;;;4.03;;
16031;SDS011;8120;48.308;8.914;2023-08-12T06:49:22;4.97;;;3.72;;
16031;SDS011;8120;48.308;8.914;2023-08-12T06:51:50;4.83;;;3.63;;
16031;SDS011;8120;48.308;8.914;2023-08-12T06:54:17;5.97;;;3.50;;
16031;SDS011;8120;48.308;8.914;2023-08-12T06:56:45;6.07;;;3.72;;
16031;SDS011;8120;48.308;8.914;2023-08-12T06:59:13;5.20;;;3.28;;
16031;SDS011;8120;48.308;8.914;2023-08-12T07:01:41;4.90;;;3.70;;
16031;SDS011;8120;48.308;8.914;2023-08-12T07:04:09;4.35;;;3.42;;
16031;SDS011;8120;48.308;8.914;2023-08-12T07:06:38;5.55;;;3.60;;
16031;SDS011;8120;48.308;8.914;2023-08-12T07:09:06;5.32;;;3.42;;
16031;SDS011;8120;48.308;8.914;2023-08-12T07:11:34;5.72;;;3.88;;
16031;SDS011;8120;48.308;8.914;2023-08-12T07:14:02;5.97;;;3.65;;
16031;SDS011;8120;48.308;8.914;2023-08-12T07:16:30;5.55;;;3.80;;
16031;SDS011;8120;48.308;8.914;2023-08-12T07:18:58;6.13;;;4.60;;
16031;SDS011;8120;48.308;8.914;2023-08-12T07:21:26;6.50;;;3.95;;
16031;SDS011;8120;48.308;8.914;2023-08-12T07:23:55;5.82;;;3.80;;
16031;SDS011;8120;48.308;8.914;2023-08-12T07:26:29;6.07;;;3.65;;
16031;SDS011;8120;48.308;8.914;2023-08-12T07:28:57;3.92;;;3.53;;
16031;SDS011;8120;48.308;8.914;2023-08-12T07:31:25;4.60;;;3.60;;
16031;SDS011;8120;48.308;8.914;2023-08-12T07:33:53;5.13;;;3.63;;
16031;SDS011;8120;48.308;8.914;2023-08-12T07:36:21;4.97;;;3.92;;
16031;SDS011;8120;48.308;8.914;2023-08-12T07:38:49;5.60;;;3.50;;
16031;SDS011;8120;48.308;8.914;2023-08-12T07:41:18;5.75;;;3.70;;
16031;SDS011;8120;48.308;8.914;2023-08-12T07:43:46;6.63;;;3.58;;
16031;SDS011;8120;48.308;8.914;2023-08-12T07:46:14;5.95;;;3.50;;
16031;SDS011;8120;48.308;8.914;2023-08-12T07:48:42;5.28;;;3.38;;
16031;SDS011;8120;48.308;8.914;2023-08-12T07:51:10;4.20;;;3.28;;
16031;SDS011;8120;48.308;8.914;2023-08-12T07:53:38;5.28;;;4.78;;
16031;SDS011;8120;48.308;8.914;2023-08-12T07:56:06;5.03;;;4.35;;
16031;SDS011;8120;48.308;8.914;2023-08-12T07:58:36;5.63;;;3.50;;
16031;SDS011;8120;48.308;8.914;2023-08-12T08:01:04;5.10;;;4.53;;
16031;SDS011;8120;48.308;8.914;2023-08-12T08:03:32;6.15;;;5.25;;
16031;SDS011;8120;48.308;8.914;2023-08-12T08:06:00;7.35;;;4.50;;
16031;SDS011;8120;48.308;8.914;2023-08-12T08:08:28;5.80;;;4.07;;
16031;SDS011;8120;48.308;8.914;2023-08-12T08:10:56;8.48;;;7.57;;
16031;SDS011;8120;48.308;8.914;2023-08-12T08:13:23;9.50;;;6.72;;
16031;SDS011;8120;48.308;8.914;2023-08-12T08:15:53;5.30;;;3.97;;
16031;SDS011;8120;48.308;8.914;2023-08-12T08:18:21;4.38;;;3.10;;
16031;SDS011;8120;48.308;8.914;2023-08-12T08:20:49;5.03;;;3.80;;
16031;SDS011;8120;48.308;8.914;2023-08-12T08:23:17;6.28;;;3.60;;
16031;SDS011;8120;48.308;8.914;2023-08-12T08:25:45;5.03;;;3.17;;
16031;SDS011;8120;48.308;8.914;2023-08-12T08:28:13;3.80;;;3.40;;
16031;SDS011;8120;48.308;8.914;2023-08-12T08:30:41;4.60;;;2.90;;
16031;SDS011;8120;48.308;8.914;2023-08-12T08:33:10;3.67;;;2.90;;
16031;SDS011;8120;48.308;8.914;2023-08-12T08:35:38;3.78;;;2.53;;
16031;SDS011;8120;48.308;8.914;2023-08-12T08:38:06;3.30;;;2.75;;
16031;SDS011;8120;48.308;8.914;2023-08-12T08:40:33;3.20;;;2.83;;
16031;SDS011;8120;48.308;8.914;2023-08-12T08:43:02;4.72;;;3.40;;
16031;SDS011;8120;48.308;8.914;2023-08-12T08:45:34;4.72;;;3.22;;
16031;SDS011;8120;48.308;8.914;2023-08-12T08:48:02;3.42;;;2.65;;
16031;SDS011;8120;48.308;8.914;2023-08-12T08:50:33;3.80;;;2.75;;
16031;SDS011;8120;48.308;8.914;2023-08-12T08:53:02;3.58;;;2.88;;
16031;SDS011;8120;48.308;8.914;2023-08-12T08:55:33;3.53;;;2.83;;
16031;SDS011;8120;48.308;8.914;2023-08-12T08:58:01;5.18;;;3.13;;
16031;SDS011;8120;48.308;8.914;2023-08-12T09:00:31;3.78;;;3.03;;
16031;SDS011;8120;48.308;8.914;2023-08-12T09:02:59;4.13;;;2.78;;
16031;SDS011;8120;48.308;8.914;2023-08-12T09:05:28;4.43;;;2.85;;
16031;SDS011;8120;48.308;8.914;2023-08-12T09:07:59;3.85;;;2.90;;
16031;SDS011;8120;48.308;8.914;2023-08-12T09:10:29;5.70;;;3.20;;
16031;SDS011;8120;48.308;8.914;2023-08-12T09:12:57;3.97;;;3.20;;
16031;SDS011;8120;48.308;8.914;2023-08-12T09:15:25;4.07;;;2.40;;
16031;SDS011;8120;48.308;8.914;2023-08-12T09:17:53;2.75;;;2.50;;
16031;SDS011;8120;48.308;8.914;2023-08-12T09:20:21;4.97;;;3.17;;
16031;SDS011;8120;48.308;8.914;2023-08-12T09:22:55;4.13;;;2.58;;
16031;SDS011;8120;48.308;8.914;2023-08-12T09:25:26;3.97;;;2.85;;
16031;SDS011;8120;48.308;8.914;2023-08-12T09:27:55;4.70;;;3.00;;
16031;SDS011;8120;48.308;8.914;2023-08-12T09:30:28;6.15;;;3.08;;
16031;SDS011;8120;48.308;8.914;2023-08-12T09:32:57;3.95;;;2.75;;
16031;SDS011;8120;48.308;8.914;2023-08-12T09:35:34;3.20;;;2.40;;
16031;SDS011;8120;48.308;8.914;2023-08-12T09:38:04;3.38;;;2.85;;
16031;SDS011;8120;48.308;8.914;2023-08-12T09:40:35;6.45;;;3.05;;
16031;SDS011;8120;48.308;8.914;2023-08-12T09:43:04;3.85;;;2.85;;
16031;SDS011;8120;48.308;8.914;2023-08-12T09:45:33;5.53;;;2.90;;
16031;SDS011;8120;48.308;8.914;2023-08-12T09:48:01;5.95;;;2.95;;
16031;SDS011;8120;48.308;8.914;2023-08-12T09:50:30;3.72;;;2.70;;
16031;SDS011;8120;48.308;8.914;2023-08-12T09:52:58;4.30;;;2.67;;
16031;SDS011;8120;48.308;8.914;2023-08-12T09:55:27;5.13;;;2.78;;
16031;SDS011;8120;48.308;8.914;2023-08-12T09:57:56;3.38;;;2.58;;
16031;SDS011;8120;48.308;8.914;2023-08-12T10:00:26;2.60;;;2.40;;
16031;SDS011;8120;48.308;8.914;2023-08-12T10:02:54;3.08;;;2.33;;
16031;SDS011;8120;48.308;8.914;2023-08-12T10:05:24;6.45;;;2.97;;
16031;SDS011;8120;48.308;8.914;2023-08-12T10:07:54;5.63;;;2.75;;
16031;SDS011;8120;48.308;8.914;2023-08-12T10:10:22;2.78;;;2.33;;
16031;SDS011;8120;48.308;8.914;2023-08-12T10:12:51;5.03;;;2.85;;
16031;SDS011;8120;48.308;8.914;2023-08-12T10:15:21;4.68;;;2.63;;
16031;SDS011;8120;48.308;8.914;2023-08-12T10:17:50;3.35;;;2.72;;
16031;SDS011;8120;48.308;8.914;2023-08-12T10:20:20;6.13;;;2.80;;
16031;SDS011;8120;48.308;8.914;2023-08-12T10:22:49;3.20;;;2.30;;
16031;SDS011;8120;48.308;8.914;2023-08-12T10:25:18;3.17;;;2.35;;
16031;SDS011;8120;48.308;8.914;2023-08-12T10:27:48;3.40;;;2.38;;
16031;SDS011;8120;48.308;8.914;2023-08-12T10:30:16;2.70;;;2.35;;
16031;SDS011;8120;48.308;8.914;2023-08-12T10:32:45;3.47;;;2.58;;
16031;SDS011;8120;48.308;8.914;2023-08-12T10:35:14;3.50;;;2.58;;
16031;SDS011;8120;48.308;8.914;2023-08-12T10:37:42;4.88;;;2.63;;
16031;SDS011;8120;48.308;8.914;2023-08-12T10:40:19;3.63;;;2.67;;
16031;SDS011;8120;48.308;8.914;2023-08-12T10:42:49;2.67;;;2.35;;
16031;SDS011;8120;48.308;8.914;2023-08-12T10:45:17;3.80;;;2.47;;
16031;SDS011;8120;48.308;8.914;2023-08-12T10:47:51;4.65;;;2.47;;
16031;SDS011;8120;48.308;8.914;2023-08-12T10:50:37;4.53;;;2.63;;
16031;SDS011;8120;48.308;8.914;2023-08-12T10:53:24;4.30;;;2.72;;
16031;SDS011;8120;48.308;8.914;2023-08-12T10:55:56;5.20;;;2.90;;
16031;SDS011;8120;48.308;8.914;2023-08-12T10:58:29;6.47;;;2.83;;
16031;SDS011;8120;48.308;8.914;2023-08-12T11:00:57;4.15;;;2.97;;
16031;SDS011;8120;48.308;8.914;2023-08-12T11:03:27;3.90;;;3.03;;
16031;SDS011;8120;48.308;8.914;2023-08-12T11:06:04;5.75;;;3.25;;
16031;SDS011;8120;48.308;8.914;2023-08-12T11:08:32;4.93;;;3.30;;
16031;SDS011;8120;48.308;8.914;2023-08-12T11:11:00;5.05;;;3.28;;
16031;SDS011;8120;48.308;8.914;2023-08-12T11:13:29;4.18;;;2.55;;
16031;SDS011;8120;48.308;8.914;2023-08-12T11:16:06;3.28;;;2.35;;
16031;SDS011;8120;48.308;8.914;2023-08-12T11:18:38;2.55;;;2.13;;
16031;SDS011;8120;48.308;8.914;2023-08-12T11:21:08;5.28;;;2.33;;
16031;SDS011;8120;48.308;8.914;2023-08-12T11:23:36;5.07;;;3.03;;
16031;SDS011;8120;48.308;8.914;2023-08-12T11:26:05;4.28;;;2.75;;
16031;SDS011;8120;48.308;8.914;2023-08-12T11:28:33;2.45;;;2.22;;
16031;SDS011;8120;48.308;8.914;2023-08-12T11:31:00;2.78;;;2.45;;
16031;SDS011;8120;48.308;8.914;2023-08-12T11:33:29;2.90;;;2.30;;
16031;SDS011;8120;48.308;8.914;2023-08-12T11:36:00;3.47;;;2.40;;
16031;SDS011;8120;48.308;8.914;2023-08-12T11:38:28;5.57;;;2.72;;
16031;SDS011;8120;48.308;8.914;2023-08-12T11:40:56;3.22;;;2.63;;
16031;SDS011;8120;48.308;8.914;2023-08-12T11:43:27;3.40;;;2.50;;
16031;SDS011;8120;48.308;8.914;2023-08-12T11:45:56;4.10;;;2.67;;
16031;SDS011;8120;48.308;8.914;2023-08-12T11:48:24;4.10;;;2.53;;
16031;SDS011;8120;48.308;8.914;2023-08-12T11:50:54;4.05;;;2.80;;
16031;SDS011;8120;48.308;8.914;2023-08-12T11:53:24;5.05;;;2.65;;
16031;SDS011;8120;48.308;8.914;2023-08-12T11:55:52;4.10;;;2.45;;
16031;SDS011;8120;48.308;8.914;2023-08-12T11:58:20;3.78;;;2.60;;
16031;SDS011;8120;48.308;8.914;2023-08-12T12:00:49;3.70;;;2.60;;
16031;SDS011;8120;48.308;8.914;2023-08-12T12:03:17;4.10;;;2.65;;
16031;SDS011;8120;48.308;8.914;2023-08-12T12:05:45;3.90;;;2.55;;
16031;SDS011;8120;48.308;8.914;2023-08-12T12:08:14;6.15;;;3.30;;
16031;SDS011;8120;48.308;8.914;2023-08-12T12:10:43;3.67;;;2.47;;
16031;SDS011;8120;48.308;8.914;2023-08-12T12:13:11;4.72;;;2.90;;
16031;SDS011;8120;48.308;8.914;2023-08-12T12:15:41;4.90;;;3.35;;
16031;SDS011;8120;48.308;8.914;2023-08-12T12:18:09;5.55;;;3.47;;
16031;SDS011;8120;48.308;8.914;2023-08-12T12:20:41;6.35;;;3.25;;
16031;SDS011;8120;48.308;8.914;2023-08-12T12:23:20;5.55;;;3.13;;
16031;SDS011;8120;48.308;8.914;2023-08-12T12:25:49;5.50;;;2.92;;
16031;SDS011;8120;48.308;8.914;2023-08-12T12:28:24;4.50;;;3.08;;
16031;SDS011;8120;48.308;8.914;2023-08-12T12:30:52;4.72;;;3.22;;
16031;SDS011;8120;48.308;8.914;2023-08-12T12:33:20;4.78;;;3.50;;
16031;SDS011;8120;48.308;8.914;2023-08-12T12:35:48;5.55;;;3.75;;
16031;SDS011;8120;48.308;8.914;2023-08-12T12:38:24;5.10;;;2.70;;
16031;SDS011;8120;48.308;8.914;2023-08-12T12:40:54;6.13;;;2.90;;
16031;SDS011;8120;48.308;8.914;2023-08-12T12:43:22;6.83;;;2.93;;
16031;SDS011;8120;48.308;8.914;2023-08-12T12:45:49;8.20;;;3.28;;
16031;SDS011;8120;48.308;8.914;2023-08-12T12:48:18;3.45;;;2.00;;
16031;SDS011;8120;48.308;8.914;2023-08-12T12:50:45;6.53;;;1.77;;
16031;SDS011;8120;48.308;8.914;2023-08-12T12:53:13;4.10;;;2.10;;
16031;SDS011;8120;48.308;8.914;2023-08-12T12:55:41;2.27;;;1.70;;
16031;SDS011;8120;48.308;8.914;2023-08-12T12:58:11;6.57;;;2.10;;
16031;SDS011;8120;48.308;8.914;2023-08-12T13:00:39;5.63;;;2.20;;
16031;SDS011;8120;48.308;8.914;2023-08-12T13:03:07;6.27;;;3.00;;
16031;SDS011;8120;48.308;8.914;2023-08-12T13:05:35;5.67;;;2.80;;
16031;SDS011;8120;48.308;8.914;2023-08-12T13:08:03;4.57;;;2.93;;
16031;SDS011;8120;48.308;8.914;2023-08-12T13:10:32;4.90;;;3.00;;
16031;SDS011;8120;48.308;8.914;2023-08-12T13:13:00;4.70;;;3.20;;
16031;SDS011;8120;48.308;8.914;2023-08-12T13:15:30;6.03;;;3.23;;
16031;SDS011;8120;48.308;8.914;2023-08-12T13:18:00;5.30;;;3.00;;
16031;SDS011;8120;48.308;8.914;2023-08-12T13:20:29;5.70;;;3.57;;
16031;SDS011;8120;48.308;8.914;2023-08-12T13:22:57;6.83;;;3.00;;
16031;SDS011;8120;48.308;8.914;2023-08-12T13:25:24;6.80;;;3.23;;
16031;SDS011;8120;48.308;8.914;2023-08-12T13:27:52;5.50;;;3.07;;
16031;SDS011;8120;48.308;8.914;2023-08-12T13:30:20;4.40;;;2.80;;
16031;SDS011;8120;48.308;8.914;2023-08-12T13:32:49;4.78;;;3.20;;
16031;SDS011;8120;48.308;8.914;2023-08-12T13:35:17;6.00;;;3.88;;
16031;SDS011;8120;48.308;8.914;2023-08-12T13:37:45;7.13;;;3.55;;
16031;SDS011;8120;48.308;8.914;2023-08-12T13:40:13;5.20;;;3.58;;
16031;SDS011;8120;48.308;8.914;2023-08-12T13:42:41;5.80;;;3.63;;
16031;SDS011;8120;48.308;8.914;2023-08-12T13:45:11;5.03;;;3.75;;
16031;SDS011;8120;48.308;8.914;2023-08-12T13:47:40;6.45;;;3.58;;
16031;SDS011;8120;48.308;8.914;2023-08-12T13:50:09;4.88;;;3.30;;
16031;SDS011;8120;48.308;8.914;2023-08-12T13:52:37;5.43;;;3.13;;
16031;SDS011;8120;48.308;8.914;2023-08-12T13:55:05;7.45;;;3.38;;
16031;SDS011;8120;48.308;8.914;2023-08-12T13:57:34;5.15;;;3.40;;
16031;SDS011;8120;48.308;8.914;2023-08-12T14:00:02;8.43;;;3.90;;
16031;SDS011;8120;48.308;8.914;2023-08-12T14:02:35;5.85;;;3.10;;
16031;SDS011;8120;48.308;8.914;2023-08-12T14:05:04;8.13;;;3.85;;
16031;SDS011;8120;48.308;8.914;2023-08-12T14:07:34;6.35;;;3.53;;
16031;SDS011;8120;48.308;8.914;2023-08-12T14:10:02;4.95;;;3.38;;
16031;SDS011;8120;48.308;8.914;2023-08-12T14:12:30;4.82;;;3.13;;
16031;SDS011;8120;48.308;8.914;2023-08-12T14:14:58;4.55;;;3.30;;
16031;SDS011;8120;48.308;8.914;2023-08-12T14:17:26;5.40;;;3.78;;
16031;SDS011;8120;48.308;8.914;2023-08-12T14:19:54;7.13;;;3.58;;
16031;SDS011;8120;48.308;8.914;2023-08-12T14:22:21;4.97;;;3.30;;
16031;SDS011;8120;48.308;8.914;2023-08-12T14:24:51;6.65;;;4.10;;
16031;SDS011;8120;48.308;8.914;2023-08-12T14:27:19;5.75;;;3.92;;
16031;SDS011;8120;48.308;8.914;2023-08-12T14:29:46;5.57;;;3.45;;
16031;SDS011;8120;48.308;8.914;2023-08-12T14:32:14;5.47;;;3.33;;
16031;SDS011;8120;48.308;8.914;2023-08-12T14:34:44;6.22;;;4.18;;
16031;SDS011;8120;48.308;8.914;2023-08-12T14:37:12;5.13;;;3.50;;
16031;SDS011;8120;48.308;8.914;2023-08-12T14:39:41;5.78;;;3.22;;
16031;SDS011;8120;48.308;8.914;2023-08-12T14:42:10;4.93;;;3.28;;
16031;SDS011;8120;48.308;8.914;2023-08-12T14:44:38;5.18;;;3.33;;
16031;SDS011;8120;48.308;8.914;2023-08-12T14:47:06;4.97;;;3.47;;
16031;SDS011;8120;48.308;8.914;2023-08-12T14:49:34;6.15;;;3.60;;
16031;SDS011;8120;48.308;8.914;2023-08-12T14:52:02;5.25;;;3.55;;
16031;SDS011;8120;48.308;8.914;2023-08-12T14:54:30;4.93;;;3.38;;
16031;SDS011;8120;48.308;8.914;2023-08-12T14:56:58;5.43;;;3.75;;
16031;SDS011;8120;48.308;8.914;2023-08-12T14:59:27;7.78;;;3.90;;
16031;SDS011;8120;48.308;8.914;2023-08-12T15:01:55;5.22;;;3.58;;
16031;SDS011;8120;48.308;8.914;2023-08-12T15:04:23;6.28;;;3.85;;
16031;SDS011;8120;48.308;8.914;2023-08-12T15:06:50;5.22;;;3.40;;
16031;SDS011;8120;48.308;8.914;2023-08-12T15:09:18;5.90;;;3.83;;